createdAt,value
2017-07-23T00:01:58.670Z,100228.35
2017-07-23T00:04:33.891Z,100230.53
2017-07-23T00:07:10.754Z,100218.52
2017-07-23T00:09:44.972Z,100219.20
2017-07-23T00:12:19.183Z,100213.52
2017-07-23T00:14:59.914Z,100219.27
2017-07-23T00:17:38.268Z,100219.12
2017-07-23T00:23:45.357Z,100230.86
2017-07-23T00:26:38.254Z,100221.23
2017-07-23T00:29:25.739Z,100228.27
2017-07-23T00:32:05.112Z,100234.22
2017-07-23T00:34:45.729Z,100234.65
2017-07-23T00:37:20.987Z,100232.28
2017-07-23T00:39:59.407Z,100227.23
2017-07-23T00:42:38.896Z,100225.92
2017-07-23T00:45:15.888Z,100218.77
2017-07-23T00:47:52.743Z,100211.94
2017-07-23T00:50:38.622Z,100208.70
2017-07-23T00:53:15.594Z,100218.39
2017-07-23T00:55:58.649Z,100218.70
2017-07-23T00:58:34.586Z,100223.65
2017-07-23T01:01:12.425Z,100225.07
2017-07-23T01:03:50.215Z,100231.08
2017-07-23T01:06:31.112Z,100229.01
2017-07-23T01:09:16.982Z,100229.09
2017-07-23T01:11:55.630Z,100234.94
2017-07-23T01:14:32.607Z,100237.46
2017-07-23T01:17:06.742Z,100241.32
2017-07-23T01:19:45.918Z,100244.35
2017-07-23T01:22:27.545Z,100231.39
2017-07-23T01:25:07.963Z,100234.20
2017-07-23T01:27:47.728Z,100225.20
2017-07-23T01:30:48.903Z,100222.77
2017-07-23T01:33:45.891Z,100231.87
2017-07-23T01:36:25.911Z,100242.39
2017-07-23T01:39:02.459Z,100236.61
2017-07-23T01:41:39.749Z,100233.55
2017-07-23T01:44:17.820Z,100241.81
2017-07-23T01:46:56.016Z,100241.97
2017-07-23T01:49:30.452Z,100245.98
2017-07-23T01:52:12.965Z,100254.45
2017-07-23T01:54:48.531Z,100263.05
2017-07-23T01:57:25.579Z,100255.28
2017-07-23T02:00:06.954Z,100269.64
2017-07-23T02:02:47.377Z,100276.44
2017-07-23T02:05:26.716Z,100282.77
2017-07-23T02:08:10.369Z,100272.05
2017-07-23T02:10:59.441Z,100269.27
2017-07-23T02:13:39.247Z,100272.61
2017-07-23T02:16:18.866Z,100269.89
2017-07-23T02:18:56.006Z,100274.63
2017-07-23T02:21:39.206Z,100290.07
2017-07-23T02:24:22.382Z,100280.40
2017-07-23T02:26:56.734Z,100271.50
2017-07-23T02:29:31.973Z,100281.48
2017-07-23T02:32:13.700Z,100286.22
2017-07-23T02:34:56.691Z,100289.94
2017-07-23T02:37:33.260Z,100296.05
2017-07-23T02:40:12.631Z,100300.19
2017-07-23T02:42:52.136Z,100303.16
2017-07-23T02:48:40.925Z,100314.23
2017-07-23T02:51:29.341Z,100323.66
2017-07-23T02:54:30.377Z,100318.41
2017-07-23T02:57:25.240Z,100335.11
2017-07-23T03:05:49.600Z,100340.19
2017-07-23T03:08:21.062Z,100332.06
2017-07-23T03:10:52.691Z,100332.40
2017-07-23T03:13:24.043Z,100335.09
2017-07-23T03:15:55.425Z,100341.06
2017-07-23T03:18:26.743Z,100340.44
2017-07-23T03:20:58.095Z,100341.89
2017-07-23T03:23:29.724Z,100341.41
2017-07-23T03:26:02.251Z,100342.51
2017-07-23T03:28:34.656Z,100337.95
2017-07-23T03:31:06.012Z,100350.27
2017-07-23T03:33:37.382Z,100349.20
2017-07-23T03:36:09.532Z,100345.42
2017-07-23T03:38:40.961Z,100345.42
2017-07-23T03:41:12.727Z,100350.22
2017-07-23T03:43:44.134Z,100336.03
2017-07-23T03:46:15.524Z,100339.55
2017-07-23T03:48:46.880Z,100348.72
2017-07-23T03:51:18.252Z,100346.69
2017-07-23T03:53:49.904Z,100352.61
2017-07-23T03:56:22.699Z,100356.51
2017-07-23T03:58:55.550Z,100362.81
2017-07-23T04:01:28.310Z,100363.45
2017-07-23T04:03:59.672Z,100363.91
2017-07-23T04:06:31.875Z,100362.42
2017-07-23T04:09:05.300Z,100362.27
2017-07-23T04:11:36.987Z,100366.09
2017-07-23T04:14:09.341Z,100365.58
2017-07-23T04:16:40.735Z,100369.40
2017-07-23T04:19:12.096Z,100373.48
2017-07-23T04:21:43.539Z,100377.83
2017-07-23T04:24:15.199Z,100390.38
2017-07-23T04:26:46.566Z,100386.86
2017-07-23T04:29:18.229Z,100395.83
2017-07-23T04:31:49.724Z,100395.89
2017-07-23T04:35:23.843Z,100399.11
2017-07-23T04:37:55.233Z,100402.47
2017-07-23T04:40:26.677Z,100404.75
2017-07-23T04:42:58.523Z,100412.39
2017-07-23T04:45:29.887Z,100415.00
2017-07-23T04:48:01.301Z,100415.75
2017-07-23T04:50:32.694Z,100409.99
2017-07-23T04:53:04.061Z,100413.17
2017-07-23T04:55:36.852Z,100420.76
2017-07-23T04:58:08.625Z,100418.69
2017-07-23T05:00:40.253Z,100417.00
2017-07-23T05:03:11.631Z,100420.08
2017-07-23T05:05:42.975Z,100420.92
2017-07-23T05:08:14.707Z,100424.38
2017-07-23T05:10:46.095Z,100424.81
2017-07-23T05:13:17.511Z,100432.45
2017-07-23T05:15:49.316Z,100433.56
2017-07-23T05:18:20.643Z,100430.13
2017-07-23T05:20:52.301Z,100432.97
2017-07-23T05:23:25.229Z,100439.77
2017-07-23T05:25:56.638Z,100435.61
2017-07-23T05:28:28.448Z,100421.58
2017-07-23T05:30:59.817Z,100430.73
2017-07-23T05:33:31.212Z,100431.88
2017-07-23T05:36:03.925Z,100428.58
2017-07-23T05:38:35.567Z,100427.31
2017-07-23T05:41:07.679Z,100433.70
2017-07-23T05:43:39.558Z,100433.95
2017-07-23T05:46:12.028Z,100441.33
2017-07-23T05:48:44.623Z,100436.20
2017-07-23T05:51:17.655Z,100443.39
2017-07-23T05:53:51.069Z,100439.27
2017-07-23T05:59:17.549Z,100444.04
2017-07-23T06:01:49.311Z,100440.02
2017-07-23T06:04:20.967Z,100434.77
2017-07-23T06:06:54.093Z,100436.89
2017-07-23T06:09:26.058Z,100438.05
2017-07-23T06:11:57.880Z,100439.60
2017-07-23T06:14:29.674Z,100445.53
2017-07-23T06:17:01.436Z,100444.22
2017-07-23T06:19:33.173Z,100448.99
2017-07-23T06:22:05.568Z,100445.90
2017-07-23T06:24:36.937Z,100440.83
2017-07-23T06:27:08.308Z,100446.71
2017-07-23T06:29:40.057Z,100449.06
2017-07-23T06:32:11.890Z,100446.15
2017-07-23T06:34:43.312Z,100446.69
2017-07-23T06:37:15.065Z,100444.48
2017-07-23T06:39:46.486Z,100453.27
2017-07-23T06:42:17.931Z,100451.98
2017-07-23T06:44:49.630Z,100462.77
2017-07-23T06:47:21.468Z,100461.30
2017-07-23T06:49:52.901Z,100459.91
2017-07-23T06:52:24.660Z,100459.47
2017-07-23T06:55:00.261Z,100455.27
2017-07-23T06:57:33.076Z,100458.20
2017-07-23T07:09:35.301Z,100471.16
2017-07-23T07:12:22.374Z,100477.77
2017-07-23T07:14:54.219Z,100476.27
2017-07-23T07:17:31.431Z,100486.08
2017-07-23T07:20:05.317Z,100481.59
2017-07-23T07:22:37.389Z,100477.98
2017-07-23T07:25:08.838Z,100489.77
2017-07-23T07:27:40.219Z,100484.39
2017-07-23T07:30:12.015Z,100490.23
2017-07-23T07:32:43.409Z,100488.63
2017-07-23T07:35:15.227Z,100490.64
2017-07-23T07:37:46.705Z,100498.47
2017-07-23T07:40:18.165Z,100499.24
2017-07-23T07:42:49.690Z,100502.20
2017-07-23T07:45:21.147Z,100494.61
2017-07-23T07:47:52.583Z,100490.82
2017-07-23T07:50:23.979Z,100489.64
2017-07-23T07:52:56.720Z,100497.87
2017-07-23T07:55:28.426Z,100499.64
2017-07-23T07:58:00.139Z,100504.20
2017-07-23T08:00:32.826Z,100501.53
2017-07-23T08:03:04.192Z,100506.18
2017-07-23T08:05:36.575Z,100505.05
2017-07-23T08:08:13.221Z,100510.66
2017-07-23T08:10:44.884Z,100512.09
2017-07-23T08:13:16.696Z,100510.17
2017-07-23T08:15:48.660Z,100509.23
2017-07-23T08:18:21.031Z,100519.91
2017-07-23T08:20:53.301Z,100523.02
2017-07-23T08:23:24.878Z,100518.29
2017-07-23T08:25:57.041Z,100521.38
2017-07-23T08:28:29.542Z,100523.89
2017-07-23T08:31:01.106Z,100520.40
2017-07-23T08:33:33.522Z,100517.56
2017-07-23T08:36:07.957Z,100514.89
2017-07-23T08:38:39.572Z,100509.34
2017-07-23T08:41:11.275Z,100506.97
2017-07-23T08:43:44.151Z,100497.48
2017-07-23T08:46:17.653Z,100503.98
2017-07-23T08:48:52.661Z,100498.03
2017-07-23T08:51:24.871Z,100507.27
2017-07-23T08:53:56.243Z,100515.61
2017-07-23T08:56:28.511Z,100511.23
2017-07-23T08:59:05.141Z,100508.98
2017-07-23T09:01:38.364Z,100502.47
2017-07-23T09:04:12.875Z,100506.84
2017-07-23T09:06:48.407Z,100504.00
2017-07-23T09:09:23.208Z,100501.80
2017-07-23T09:12:00.050Z,100509.53
2017-07-23T09:14:32.923Z,100506.87
2017-07-23T09:17:11.514Z,100506.70
2017-07-23T09:19:46.200Z,100507.28
2017-07-23T09:22:25.941Z,100519.70
2017-07-23T09:25:02.087Z,100515.77
2017-07-23T09:30:41.447Z,100507.70
2017-07-23T09:33:14.957Z,100518.02
2017-07-23T09:35:47.730Z,100518.16
2017-07-23T09:38:21.844Z,100517.74
2017-07-23T09:40:55.050Z,100521.80
2017-07-23T09:43:27.654Z,100521.31
2017-07-23T09:46:11.106Z,100524.25
2017-07-23T09:48:58.367Z,100526.03
2017-07-23T09:51:34.103Z,100523.33
2017-07-23T09:54:13.443Z,100531.20
2017-07-23T09:56:49.874Z,100532.38
2017-07-23T09:59:23.590Z,100529.84
2017-07-23T10:01:57.961Z,100531.89
2017-07-23T10:04:32.262Z,100527.00
2017-07-23T10:10:37.435Z,100536.98
2017-07-23T10:13:14.294Z,100540.11
2017-07-23T10:15:49.510Z,100521.53
2017-07-23T10:18:23.340Z,100521.00
2017-07-23T10:20:57.651Z,100526.84
2017-07-23T10:23:30.846Z,100529.05
2017-07-23T10:26:08.087Z,100536.84
2017-07-23T10:28:40.266Z,100534.15
2017-07-23T10:31:14.640Z,100530.17
2017-07-23T10:33:49.653Z,100525.51
2017-07-23T10:36:25.306Z,100529.20
2017-07-23T10:38:58.618Z,100530.84
2017-07-23T10:41:31.732Z,100526.33
2017-07-23T10:44:07.714Z,100530.95
2017-07-23T10:46:40.752Z,100533.94
2017-07-23T10:49:14.151Z,100527.17
2017-07-23T10:51:47.316Z,100528.80
2017-07-23T10:54:21.891Z,100543.45
2017-07-23T10:56:53.732Z,100532.04
2017-07-23T10:59:26.216Z,100529.91
2017-07-23T11:01:58.567Z,100527.75
2017-07-23T11:04:31.213Z,100518.02
2017-07-23T11:07:25.159Z,100521.11
2017-07-23T11:09:58.216Z,100522.23
2017-07-23T11:12:36.689Z,100533.71
2017-07-23T11:15:11.335Z,100542.37
2017-07-23T11:17:46.646Z,100537.06
2017-07-23T11:20:21.109Z,100544.77
2017-07-23T11:22:57.135Z,100544.00
2017-07-23T11:25:30.607Z,100541.63
2017-07-23T11:28:24.651Z,100536.09
2017-07-23T11:31:05.693Z,100542.83
2017-07-23T11:33:46.773Z,100534.98
2017-07-23T11:42:11.382Z,100520.69
2017-07-23T11:44:48.367Z,100523.14
2017-07-23T11:47:33.659Z,100512.81
2017-07-23T11:50:21.471Z,100516.55
2017-07-23T11:53:02.046Z,100511.23
2017-07-23T11:55:38.467Z,100514.73
2017-07-23T12:01:21.631Z,100497.80
2017-07-23T12:04:07.220Z,100498.14
2017-07-23T12:06:46.906Z,100512.88
2017-07-23T12:09:26.564Z,100515.82
2017-07-23T12:12:29.623Z,100505.61
2017-07-23T12:15:32.383Z,100509.50
2017-07-23T12:21:44.763Z,100515.00
2017-07-23T12:28:24.500Z,100528.09
2017-07-23T12:34:06.959Z,100500.45
2017-07-23T12:36:51.818Z,100495.95
2017-07-23T12:42:38.410Z,100500.81
2017-07-23T12:45:11.951Z,100501.94
2017-07-23T12:47:47.411Z,100494.52
2017-07-23T12:50:26.906Z,100496.48
2017-07-23T12:53:01.923Z,100493.86
2017-07-23T12:55:37.231Z,100500.45
2017-07-23T12:58:13.947Z,100505.69
2017-07-23T13:00:49.472Z,100498.71
2017-07-23T13:03:24.784Z,100501.02
2017-07-23T13:06:00.596Z,100495.45
2017-07-23T13:08:33.702Z,100490.30
2017-07-23T13:11:17.207Z,100487.17
2017-07-23T13:13:55.817Z,100485.89
2017-07-23T13:16:32.508Z,100492.25
2017-07-23T13:19:05.716Z,100493.12
2017-07-23T13:21:39.487Z,100509.91
2017-07-23T13:24:12.956Z,100487.31
2017-07-23T13:26:46.250Z,100482.63
2017-07-23T13:29:19.613Z,100485.33
2017-07-23T13:31:52.700Z,100500.88
2017-07-23T13:34:25.824Z,100492.02
2017-07-23T13:36:59.233Z,100493.05
2017-07-23T13:39:32.187Z,100496.30
2017-07-23T13:42:06.306Z,100501.11
2017-07-23T13:44:39.784Z,100486.14
2017-07-23T13:47:12.738Z,100488.44
2017-07-23T13:49:45.752Z,100490.02
2017-07-23T13:52:18.866Z,100496.08
2017-07-23T13:54:52.542Z,100487.83
2017-07-23T13:57:32.212Z,100492.08
2017-07-23T14:00:25.270Z,100492.86
2017-07-23T14:02:58.522Z,100480.20
2017-07-23T14:05:31.253Z,100477.37
2017-07-23T14:08:04.691Z,100473.23
2017-07-23T14:10:36.475Z,100463.99
2017-07-23T14:13:09.604Z,100477.77
2017-07-23T14:15:42.000Z,100468.45
2017-07-23T14:18:15.702Z,100476.88
2017-07-23T14:20:51.033Z,100473.67
2017-07-23T14:23:28.061Z,100471.52
2017-07-23T14:26:07.673Z,100458.16
2017-07-23T14:28:41.663Z,100457.66
2017-07-23T14:31:19.612Z,100453.64
2017-07-23T14:33:54.839Z,100458.58
2017-07-23T14:36:31.083Z,100461.15
2017-07-23T14:39:10.496Z,100460.81
2017-07-23T14:41:48.739Z,100459.06
2017-07-23T14:44:27.606Z,100455.28
2017-07-23T14:47:07.093Z,100463.23
2017-07-23T14:49:40.900Z,100455.61
2017-07-23T14:52:24.639Z,100450.69
2017-07-23T14:57:53.642Z,100439.77
2017-07-23T15:00:27.088Z,100432.55
2017-07-23T15:03:00.647Z,100434.63
2017-07-23T15:05:33.221Z,100435.95
2017-07-23T15:08:07.144Z,100442.79
2017-07-23T15:10:41.459Z,100446.69
2017-07-23T15:16:20.875Z,100447.35
2017-07-23T15:18:58.810Z,100432.21
2017-07-23T15:21:40.285Z,100431.46
2017-07-23T15:24:17.876Z,100438.11
2017-07-23T15:26:56.081Z,100433.81
2017-07-23T15:29:34.589Z,100433.81
2017-07-23T15:32:13.810Z,100448.16
2017-07-23T15:37:29.539Z,100425.73
2017-07-23T15:40:02.742Z,100425.59
2017-07-23T15:42:38.679Z,100426.03
2017-07-23T15:45:12.202Z,100422.33
2017-07-23T15:47:46.033Z,100423.62
2017-07-23T15:50:19.190Z,100417.60
2017-07-23T15:52:52.652Z,100429.48
2017-07-23T15:55:26.022Z,100423.52
2017-07-23T15:57:58.928Z,100428.91
2017-07-23T16:00:32.073Z,100421.91
2017-07-23T16:03:05.576Z,100420.58
2017-07-23T16:05:37.974Z,100419.85
2017-07-23T16:08:10.753Z,100426.90
2017-07-23T16:10:44.644Z,100425.94
2017-07-23T16:13:17.472Z,100423.59
2017-07-23T16:15:50.406Z,100412.78
2017-07-23T16:18:25.238Z,100411.17
2017-07-23T16:20:59.446Z,100413.78
2017-07-23T16:23:33.207Z,100401.41
2017-07-23T16:26:06.718Z,100399.92
2017-07-23T16:28:39.699Z,100402.95
2017-07-23T16:31:12.406Z,100406.04
2017-07-23T16:33:45.233Z,100405.50
2017-07-23T16:36:18.355Z,100403.80
2017-07-23T16:38:51.537Z,100398.19
2017-07-23T16:41:23.601Z,100392.86
2017-07-23T16:43:56.564Z,100410.13
2017-07-23T16:46:29.864Z,100403.02
2017-07-23T16:49:03.478Z,100406.46
2017-07-23T16:51:36.550Z,100403.36
2017-07-23T16:54:12.044Z,100404.61
2017-07-23T16:56:44.790Z,100391.67
2017-07-23T16:59:17.785Z,100387.55
2017-07-23T17:01:50.847Z,100385.77
2017-07-23T17:04:23.425Z,100388.80
2017-07-23T17:06:56.250Z,100383.28
2017-07-23T17:09:29.460Z,100389.47
2017-07-23T17:12:05.124Z,100388.41
2017-07-23T17:14:43.286Z,100384.36
2017-07-23T17:17:38.359Z,100380.67
2017-07-23T17:23:22.656Z,100377.11
2017-07-23T17:26:08.625Z,100365.89
2017-07-23T17:37:40.950Z,100361.87
2017-07-23T17:40:37.729Z,100374.96
2017-07-23T17:46:03.941Z,100364.77
2017-07-23T17:48:36.843Z,100371.43
2017-07-23T17:51:09.974Z,100366.23
2017-07-23T17:53:42.259Z,100362.45
2017-07-23T17:56:15.063Z,100361.97
2017-07-23T17:58:47.880Z,100363.45
2017-07-23T18:01:20.895Z,100363.02
2017-07-23T18:04:00.608Z,100358.47
2017-07-23T18:09:29.958Z,100356.39
2017-07-23T18:12:16.920Z,100356.22
2017-07-23T18:14:50.164Z,100352.62
2017-07-23T18:17:23.271Z,100356.08
2017-07-23T18:19:55.055Z,100347.52
2017-07-23T18:22:28.212Z,100352.56
2017-07-23T18:25:01.683Z,100347.39
2017-07-23T18:27:35.540Z,100344.23
2017-07-23T18:30:13.052Z,100346.89
2017-07-23T18:32:45.710Z,100345.80
2017-07-23T18:35:19.389Z,100345.98
2017-07-23T18:37:55.947Z,100348.22
2017-07-23T18:40:28.876Z,100342.45
2017-07-23T18:43:01.428Z,100339.53
2017-07-23T18:45:33.901Z,100341.97
2017-07-23T18:48:08.580Z,100340.77
2017-07-23T18:50:44.270Z,100346.70
2017-07-23T18:53:16.885Z,100341.82
2017-07-23T18:55:50.452Z,100330.41
2017-07-23T18:58:27.100Z,100344.55
2017-07-23T19:01:02.197Z,100343.90
2017-07-23T19:03:35.574Z,100347.95
2017-07-23T19:06:11.258Z,100343.69
2017-07-23T19:08:44.078Z,100340.94
2017-07-23T19:11:17.607Z,100338.09
2017-07-23T19:13:49.825Z,100339.02
2017-07-23T19:16:24.110Z,100340.95
2017-07-23T19:18:59.521Z,100343.62
2017-07-23T19:21:49.952Z,100352.81
2017-07-23T19:27:09.758Z,100355.84
2017-07-23T19:32:24.814Z,100357.75
2017-07-23T19:34:57.734Z,100357.16
2017-07-23T19:37:30.154Z,100348.70
2017-07-23T19:42:46.191Z,100354.45
2017-07-23T19:46:18.150Z,100359.57
2017-07-23T19:51:33.497Z,100362.05
2017-07-23T19:54:08.146Z,100361.04
2017-07-23T19:56:50.936Z,100351.68
2017-07-23T19:59:24.869Z,100359.93
2017-07-23T20:01:57.342Z,100363.16
2017-07-23T20:04:31.930Z,100355.30
2017-07-23T20:07:05.097Z,100360.68
2017-07-23T20:09:39.379Z,100360.36
2017-07-23T20:12:15.618Z,100353.77
2017-07-23T20:14:49.728Z,100357.94
2017-07-23T20:17:24.285Z,100361.39
2017-07-23T20:19:57.989Z,100354.70
2017-07-23T20:22:33.210Z,100349.16
2017-07-23T20:25:06.868Z,100353.48
2017-07-23T20:27:59.122Z,100351.10
2017-07-23T20:30:32.549Z,100350.06
2017-07-23T20:33:06.461Z,100344.00
2017-07-23T20:35:40.046Z,100338.84
2017-07-23T20:38:14.208Z,100339.01
2017-07-23T20:40:46.254Z,100338.27
2017-07-23T20:43:22.311Z,100336.47
2017-07-23T20:45:55.605Z,100333.00
2017-07-23T20:48:27.682Z,100331.55
2017-07-23T20:51:01.357Z,100335.72
2017-07-23T20:53:35.927Z,100330.89
2017-07-23T20:56:13.702Z,100334.86
2017-07-23T20:58:53.069Z,100338.15
2017-07-23T21:01:30.692Z,100336.85
2017-07-23T21:04:08.324Z,100333.00
2017-07-23T21:06:45.640Z,100329.60
2017-07-23T21:09:19.302Z,100334.20
2017-07-23T21:11:56.104Z,100332.90
2017-07-23T21:14:30.806Z,100329.70
2017-07-23T21:17:14.967Z,100332.84
2017-07-23T21:19:53.729Z,100335.84
2017-07-23T21:22:27.652Z,100332.50
2017-07-23T21:25:01.668Z,100326.17
2017-07-23T21:27:35.789Z,100328.37
2017-07-23T21:30:13.182Z,100332.48
2017-07-23T21:32:44.981Z,100329.34
2017-07-23T21:35:17.895Z,100320.90
2017-07-23T21:37:50.742Z,100318.11
2017-07-23T21:40:22.238Z,100318.86
2017-07-23T21:42:54.675Z,100324.00
2017-07-23T21:45:27.231Z,100319.55
2017-07-23T21:47:59.988Z,100313.17
2017-07-23T21:50:31.579Z,100310.83
2017-07-23T21:53:03.822Z,100303.38
2017-07-23T21:55:35.598Z,100306.52
2017-07-23T21:58:08.490Z,100296.88
2017-07-23T22:00:40.481Z,100291.44
2017-07-23T22:03:12.748Z,100286.86
2017-07-23T22:05:45.261Z,100284.81
2017-07-23T22:08:18.984Z,100280.94
2017-07-23T22:10:50.566Z,100278.56
2017-07-23T22:13:25.191Z,100277.01
2017-07-23T22:15:57.022Z,100271.11
2017-07-23T22:18:30.393Z,100269.16
2017-07-23T22:30:09.140Z,100261.11
2017-07-23T22:32:40.597Z,100258.92
2017-07-23T22:35:12.600Z,100259.38
2017-07-23T22:37:45.127Z,100259.05
2017-07-23T22:40:19.869Z,100255.76
2017-07-23T22:42:53.148Z,100261.16
2017-07-23T22:45:25.031Z,100259.18
2017-07-23T22:47:56.696Z,100253.35
2017-07-23T22:50:28.601Z,100243.70
2017-07-23T22:53:00.316Z,100243.09
2017-07-23T22:55:33.963Z,100240.60
2017-07-23T22:58:11.046Z,100240.87
2017-07-23T23:00:44.714Z,100233.28
2017-07-23T23:03:16.354Z,100233.46
2017-07-23T23:05:48.471Z,100229.01
2017-07-23T23:08:23.670Z,100229.39
2017-07-23T23:10:56.568Z,100222.94
2017-07-23T23:13:30.252Z,100217.34
2017-07-23T23:16:06.146Z,100218.23
2017-07-23T23:18:40.047Z,100212.12
2017-07-23T23:21:13.066Z,100213.55
2017-07-23T23:23:46.855Z,100203.78
2017-07-23T23:26:25.082Z,100197.39
2017-07-23T23:28:59.066Z,100199.34
2017-07-23T23:31:32.793Z,100196.47
2017-07-23T23:34:11.571Z,100197.09
2017-07-23T23:36:44.910Z,100200.20
2017-07-23T23:39:18.433Z,100193.16
2017-07-23T23:41:52.629Z,100187.84
2017-07-23T23:44:25.893Z,100184.16
2017-07-23T23:47:02.266Z,100182.45
2017-07-23T23:49:35.172Z,100178.30
2017-07-23T23:52:12.931Z,100183.10
2017-07-23T23:54:46.229Z,100179.34
2017-07-23T23:57:19.337Z,100174.02
2017-07-23T23:59:52.831Z,100177.08
